Capri, Italy

9:17 AM CET on January 17, 2017 (GMT +0100)
Priora | | Change Station
Active Advisory: >

Elev 774 ft 40.62 °N, 14.36 °E | Updated 14 seconds ago

Partly Cloudy
Partly Cloudy
45.2 °F
Feels Like 40 °F
N
10.4
Wind Variable Wind from NE
Gusts 10.4 mph

Today
High -- | Low -- °F
--% Chance of Precip.
Yesterday
High -- | Low -- °F
Precip. -- in
Pressure 29.59 in
Visibility 6.2 miles
Clouds Few 3000 ft
Scattered Clouds 5000 ft
Windchill 40 °F
Dew Point 38 °F
Humidity 77%
Rainfall 0.09 in
Snow Depth Not available.
7:23 AM 5:03 PM
Waning Gibbous, 74% visible
METAR LIRM 170755Z 07012KT 9999 FEW030CB SCT050 05/02 Q1002 RMK BKN VIS MIN 9999 WIND THR06 05013KT BLU
Pressure 29.59 in
Visibility 6.2 miles
Clouds Few 3000 ft
Scattered Clouds 5000 ft
Windchill 40 °F
Dew Point 38 °F
Humidity 77%
Rainfall 0.09 in
Snow Depth Not available.
7:23 AM 5:03 PM
Waning Gibbous, 74% visible
METAR LIRM 170755Z 07012KT 9999 FEW030CB SCT050 05/02 Q1002 RMK BKN VIS MIN 9999 WIND THR06 05013KT BLU

Get Your Daily Forecast Email!

Thanks for signing up!

Be on the lookout for a verification email in your inbox.

You'll start receiving the daily forecast at 8 AM.

×

10-Day Weather Forecast

×

Almanac

Astronomy

Jan. 17, 2017 Rise Set
Actual Time
Civil Twilight
Nautical Twilight
Astronomical Twilight
Moon
Length of Visible Light
Length of Day
Tomorrow will be .
, % of the Moon is Illuminated

Today's Extremes

Country Highs Country Lows

Community

WunderPhotos

Upload Photos

1,962,540 photos uploaded!

WunderBlog® & News

Nearby

Air Quality

  Air Quality AQ Index Pollutant
Not available.

Snow Depth

Station Depth Elevation

Earthquake Activity

City Distance Mag. Time & Date
Minimum magnitude displayed is 2.5.

Coastal Water Temperatures

Place Temperature

Stations

Nearby Weather Stations

Station Location Temp. Windchill Dew Point Humidity Wind Precip. Elev Updated Type